Time;durP1;ratioP1;P1;durP2;ratioP2;P2;SDS_P1;SDS_P2;PMS_P1;PMS_P2;Temp;Humidity;BMP_temperature;BMP_pressure;BME280_temperature;BME280_humidity;BME280_pressure;Samples;Min_cycle;Max_cycle;Signal;HPM_P1;HPM_P2
2022/12/22 03:28:09;;;;;;;47.20;17.30;;;;;;;-2.35;100.00;101169.75;107949;1261;72784;-76
2022/12/22 03:30:38;;;;;;;41.70;16.80;;;;;;;-2.36;100.00;101168.21;107698;1270;70752;-75
2022/12/22 03:33:07;;;;;;;43.90;18.60;;;;;;;-2.37;100.00;101170.61;107793;1265;72270;-73
2022/12/22 03:35:36;;;;;;;45.00;17.80;;;;;;;-2.44;100.00;101171.20;107850;1268;61793;-74
2022/12/22 03:38:05;;;;;;;45.30;16.80;;;;;;;-2.49;100.00;101168.36;107752;1266;59733;-72
2022/12/22 03:40:33;;;;;;;47.60;19.10;;;;;;;-2.53;100.00;101168.91;107800;1264;74008;-72
2022/12/22 03:49:18;;;;;;;41.10;16.80;;;;;;;-2.64;100.00;101162.90;107590;1264;74181;-76
2022/12/22 03:51:52;;;;;;;43.60;17.20;;;;;;;-2.69;100.00;101159.73;107899;1267;61779;-76
2022/12/22 03:54:24;;;;;;;43.50;16.20;;;;;;;-2.74;100.00;101160.79;107716;1261;60104;-73
2022/12/22 03:56:53;;;;;;;52.90;19.40;;;;;;;-2.77;100.00;101156.73;107707;1263;73555;-75
2022/12/22 03:59:22;;;;;;;54.40;19.70;;;;;;;-2.77;100.00;101154.52;107786;1261;70594;-74
2022/12/22 04:01:53;;;;;;;46.50;17.80;;;;;;;-2.71;100.00;101149.33;107838;1271;68547;-73
2022/12/22 04:04:25;;;;;;;45.20;18.70;;;;;;;-2.75;100.00;101150.57;107692;1267;71906;-73
2022/12/22 04:06:54;;;;;;;46.80;18.60;;;;;;;-2.73;100.00;101147.66;107762;1262;61168;-77
2022/12/22 04:09:25;;;;;;;49.60;19.30;;;;;;;-2.67;100.00;101149.45;107749;1267;59827;-76
2022/12/22 04:14:41;;;;;;;49.90;19.60;;;;;;;-2.63;100.00;101139.35;107820;1260;72573;-75
2022/12/22 04:17:10;;;;;;;46.30;18.90;;;;;;;-2.70;100.00;101134.49;107722;1259;70731;-73
2022/12/22 04:19:39;;;;;;;42.40;17.90;;;;;;;-2.77;100.00;101141.05;107803;1264;72257;-74
2022/12/22 04:22:08;;;;;;;43.00;16.90;;;;;;;-2.88;100.00;101144.73;107780;1267;60288;-76
2022/12/22 04:24:37;;;;;;;47.30;19.00;;;;;;;-2.96;100.00;101139.36;107868;1263;60958;-77
2022/12/22 04:27:05;;;;;;;52.30;22.30;;;;;;;-2.91;100.00;101134.71;107850;1267;72163;-71
2022/12/22 04:29:34;;;;;;;50.90;19.70;;;;;;;-2.94;100.00;101134.39;107960;1267;72329;-76
2022/12/22 04:32:03;;;;;;;42.80;18.80;;;;;;;-2.85;100.00;101141.80;107884;1267;68877;-78
2022/12/22 04:34:32;;;;;;;46.50;18.50;;;;;;;-2.88;100.00;101140.14;107838;1258;71808;-76
2022/12/22 04:37:01;;;;;;;47.10;18.90;;;;;;;-2.92;100.00;101137.46;107831;1264;60400;-77
2022/12/22 04:39:44;;;;;;;43.20;18.30;;;;;;;-2.91;100.00;101137.79;107849;1261;58639;-76
2022/12/22 04:42:13;;;;;;;47.40;19.40;;;;;;;-2.91;100.00;101138.64;107786;1263;73576;-77
2022/12/22 04:44:41;;;;;;;54.70;20.10;;;;;;;-2.93;100.00;101140.87;107877;1259;71589;-77
2022/12/22 04:47:10;;;;;;;44.80;17.80;;;;;;;-2.99;100.00;101136.33;107551;1272;70163;-77
2022/12/22 04:49:39;;;;;;;49.50;19.80;;;;;;;-3.03;100.00;101130.75;107793;1267;71729;-73
2022/12/22 04:52:08;;;;;;;50.00;19.40;;;;;;;-3.04;100.00;101128.71;107828;1260;59748;-73
2022/12/22 04:54:37;;;;;;;57.30;21.00;;;;;;;-2.99;100.00;101131.21;107844;1264;60374;-76
2022/12/22 04:57:05;;;;;;;53.60;20.40;;;;;;;-2.89;100.00;101134.86;107774;1260;71448;-76
2022/12/22 04:59:34;;;;;;;52.10;18.80;;;;;;;-2.87;100.00;101132.29;107971;1255;69933;-75
2022/12/22 05:02:03;;;;;;;53.10;19.70;;;;;;;-2.81;100.00;101133.23;107775;1271;69167;-75
2022/12/22 05:04:32;;;;;;;52.30;21.00;;;;;;;-2.81;100.00;101131.38;107826;1271;74253;-76
2022/12/22 05:07:01;;;;;;;51.70;20.10;;;;;;;-2.74;100.00;101133.00;107851;1264;61395;-76
2022/12/22 05:09:29;;;;;;;64.90;24.00;;;;;;;-2.77;100.00;101124.52;107802;1263;61265;-76
2022/12/22 05:11:58;;;;;;;52.90;24.40;;;;;;;-2.77;100.00;101127.06;107842;1267;71968;-77
2022/12/22 05:14:27;;;;;;;48.80;20.30;;;;;;;-2.76;100.00;101139.16;107882;1261;69423;-76
2022/12/22 05:16:56;;;;;;;57.10;20.20;;;;;;;-2.69;100.00;101144.54;107829;1266;68576;-76
2022/12/22 05:19:25;;;;;;;51.10;19.60;;;;;;;-2.72;100.00;101148.50;107725;1262;73439;-78
2022/12/22 05:21:58;;;;;;;49.80;21.20;;;;;;;-2.78;100.00;101147.20;107584;1272;60742;-78
2022/12/22 05:24:27;;;;;;;51.30;20.00;;;;;;;-2.75;100.00;101147.50;107701;1257;59958;-76
2022/12/22 05:26:55;;;;;;;51.50;20.60;;;;;;;-2.70;100.00;101148.99;107697;1263;73889;-77
2022/12/22 05:29:24;;;;;;;47.00;18.70;;;;;;;-2.67;100.00;101154.58;107777;1265;71469;-73
2022/12/22 05:31:53;;;;;;;52.00;20.00;;;;;;;-2.70;100.00;101157.52;107572;1265;68405;-72
2022/12/22 05:34:22;;;;;;;51.50;18.90;;;;;;;-2.68;100.00;101157.66;107587;1273;72284;-73
2022/12/22 05:36:51;;;;;;;47.30;19.30;;;;;;;-2.69;100.00;101165.00;107588;1261;62435;-73
2022/12/22 05:39:19;;;;;;;50.80;20.70;;;;;;;-2.74;100.00;101168.30;107689;1264;60447;-72
2022/12/22 05:41:48;;;;;;;49.80;18.70;;;;;;;-2.74;100.00;101173.75;107602;1264;71288;-72
2022/12/22 05:44:17;;;;;;;48.30;20.60;;;;;;;-2.78;100.00;101174.81;107877;1261;69452;-76
2022/12/22 05:46:50;;;;;;;53.60;20.60;;;;;;;-2.71;100.00;101174.23;107797;1269;68576;-70
2022/12/22 05:49:19;;;;;;;52.40;20.10;;;;;;;-2.66;100.00;101173.66;107759;1266;73169;-73
2022/12/22 05:51:48;;;;;;;51.40;19.40;;;;;;;-2.68;100.00;101173.18;107610;1260;60833;-80
2022/12/22 05:54:17;;;;;;;43.80;18.20;;;;;;;-2.52;100.00;101173.85;107769;1270;58044;-79
2022/12/22 05:56:46;;;;;;;50.30;22.00;;;;;;;-2.65;100.00;101168.88;107755;1274;70813;-78
2022/12/22 05:59:15;;;;;;;54.60;21.20;;;;;;;-2.68;100.00;101164.64;107991;1258;71215;-79
2022/12/22 06:01:43;;;;;;;51.70;21.10;;;;;;;-2.62;100.00;101161.02;107802;1270;69961;-75
2022/12/22 06:04:12;;;;;;;53.50;19.50;;;;;;;-2.57;100.00;101166.58;107828;1261;71484;-73
2022/12/22 06:06:41;;;;;;;49.00;17.90;;;;;;;-2.63;100.00;101176.54;107891;1257;61202;-74
2022/12/22 06:09:10;;;;;;;50.90;20.10;;;;;;;-2.69;100.00;101178.30;107883;1270;59470;-74
2022/12/22 06:11:40;;;;;;;51.40;21.10;;;;;;;-2.72;100.00;101185.48;107748;1261;71543;-76
2022/12/22 06:14:09;;;;;;;54.90;23.00;;;;;;;-2.71;100.00;101194.01;107927;1260;69290;-74
2022/12/22 06:16:38;;;;;;;56.70;23.20;;;;;;;-2.71;100.00;101192.14;107810;1267;68540;-77
2022/12/22 06:19:07;;;;;;;53.20;21.30;;;;;;;-2.71;100.00;101195.19;107807;1261;71857;-75
2022/12/22 06:21:36;;;;;;;50.90;21.20;;;;;;;-2.56;100.00;101196.73;107805;1267;61216;-73
2022/12/22 06:24:05;;;;;;;49.70;20.70;;;;;;;-2.58;100.00;101196.60;107832;1263;60462;-75
2022/12/22 06:26:34;;;;;;;53.50;21.50;;;;;;;-2.62;100.00;101198.17;107720;1267;71152;-77
2022/12/22 06:29:03;;;;;;;51.10;20.40;;;;;;;-2.58;100.00;101198.48;107966;1262;70360;-75
2022/12/22 06:31:32;;;;;;;50.20;20.00;;;;;;;-2.56;100.00;101198.45;107809;1265;70300;-75
2022/12/22 06:34:01;;;;;;;56.50;20.40;;;;;;;-2.54;100.00;101203.55;107818;1266;74743;-78
2022/12/22 06:36:29;;;;;;;52.20;20.80;;;;;;;-2.51;100.00;101205.05;107728;1265;62392;-75
2022/12/22 06:38:58;;;;;;;57.70;22.40;;;;;;;-2.36;100.00;101206.08;107802;1266;58300;-72
2022/12/22 06:44:14;;;;;;;57.00;20.90;;;;;;;-2.25;100.00;101197.27;107958;1260;70170;-75
2022/12/22 06:46:43;;;;;;;60.00;22.40;;;;;;;-2.20;100.00;101202.14;107738;1270;69688;-77
2022/12/22 06:49:12;;;;;;;55.40;21.90;;;;;;;-2.15;100.00;101213.35;107808;1256;74120;-78
2022/12/22 06:51:41;;;;;;;54.20;21.90;;;;;;;-2.09;100.00;101212.77;107719;1265;61508;-75
2022/12/22 06:54:10;;;;;;;58.90;22.80;;;;;;;-2.12;99.62;101213.66;107809;1264;59398;-76
2022/12/22 06:56:42;;;;;;;59.30;22.00;;;;;;;-2.05;99.47;101203.34;107850;1263;71941;-74
2022/12/22 06:59:14;;;;;;;51.20;22.30;;;;;;;-1.95;100.00;101193.13;107959;1265;72019;-77
2022/12/22 07:01:42;;;;;;;48.60;20.50;;;;;;;-1.92;99.13;101181.98;107803;1267;70596;-75
2022/12/22 07:04:18;;;;;;;57.80;22.90;;;;;;;-1.96;98.62;101181.86;107726;1265;73645;-79
2022/12/22 07:06:47;;;;;;;50.90;22.10;;;;;;;-1.89;99.44;101186.56;107848;1261;60049;-78
2022/12/22 07:09:16;;;;;;;55.50;21.20;;;;;;;-1.90;99.08;101193.92;107834;1260;60627;-77
2022/12/22 07:11:45;;;;;;;53.60;20.70;;;;;;;-1.82;98.03;101186.81;107811;1263;73440;-76
2022/12/22 07:14:14;;;;;;;52.40;22.70;;;;;;;-1.84;98.33;101177.80;107960;1255;71834;-74
2022/12/22 07:16:43;;;;;;;55.90;24.30;;;;;;;-1.77;97.85;101180.24;107767;1267;68208;-78
2022/12/22 07:19:13;;;;;;;47.00;21.20;;;;;;;-1.82;96.52;101173.16;107828;1264;71155;-76
2022/12/22 07:21:42;;;;;;;52.30;22.70;;;;;;;-1.78;98.81;101176.69;107817;1265;57387;-77
2022/12/22 07:24:11;;;;;;;55.70;23.70;;;;;;;-1.81;97.97;101175.86;107842;1261;60181;-76
2022/12/22 07:26:40;;;;;;;55.90;22.40;;;;;;;-1.69;97.75;101171.27;107795;1267;73907;-76
2022/12/22 07:29:09;;;;;;;51.00;23.10;;;;;;;-1.66;95.98;101177.20;107960;1259;71869;-75
2022/12/22 07:31:37;;;;;;;57.90;23.40;;;;;;;-1.61;97.15;101172.69;107766;1267;69031;-75
2022/12/22 07:34:06;;;;;;;54.20;23.50;;;;;;;-1.44;98.41;101171.91;107721;1266;71043;-75
2022/12/22 07:36:35;;;;;;;59.00;22.50;;;;;;;-1.34;97.09;101173.98;107881;1259;59656;-75
2022/12/22 07:39:04;;;;;;;59.60;24.00;;;;;;;-1.35;95.10;101174.33;107882;1264;61217;-75
2022/12/22 07:44:20;;;;;;;53.50;23.60;;;;;;;-1.36;94.16;101174.01;107891;1255;71914;-75
2022/12/22 07:46:50;;;;;;;53.80;22.30;;;;;;;-1.46;94.15;101173.30;107750;1264;69557;-77
2022/12/22 07:52:06;;;;;;;55.50;22.60;;;;;;;-1.53;96.49;101169.48;107799;1264;59927;-76
2022/12/22 07:54:35;;;;;;;60.60;23.60;;;;;;;-1.37;94.77;101167.36;107823;1261;60380;-74
2022/12/22 07:57:09;;;;;;;61.70;23.30;;;;;;;-1.38;94.69;101163.44;107896;1261;72682;-79
2022/12/22 07:59:38;;;;;;;55.40;24.50;;;;;;;-1.36;94.55;101174.52;107947;1259;70599;-77
2022/12/22 08:02:11;;;;;;;58.20;24.40;;;;;;;-1.34;94.41;101173.45;107817;1266;70780;-78
2022/12/22 08:04:40;;;;;;;54.90;23.60;;;;;;;-1.30;95.05;101171.01;107769;1261;72171;-76
2022/12/22 08:07:09;;;;;;;55.40;22.60;;;;;;;-1.17;94.24;101170.11;107830;1262;61974;-77
2022/12/22 08:09:37;;;;;;;61.80;26.10;;;;;;;-1.04;93.96;101173.48;107774;1263;61554;-79
2022/12/22 08:12:06;;;;;;;57.00;24.20;;;;;;;-0.98;94.59;101177.31;107698;1271;71290;-75
2022/12/22 08:14:35;;;;;;;58.30;24.00;;;;;;;-0.87;93.26;101178.65;107954;1265;69478;-76
2022/12/22 08:17:04;;;;;;;64.10;25.90;;;;;;;-0.80;92.96;101183.48;107832;1267;67855;-78
2022/12/22 08:19:33;;;;;;;58.50;24.00;;;;;;;-0.85;92.01;101182.20;107816;1264;73758;-75
2022/12/22 08:22:03;;;;;;;66.70;27.30;;;;;;;-0.63;92.24;101176.17;107798;1263;60210;-75
2022/12/22 08:24:31;;;;;;;59.90;24.80;;;;;;;-0.79;91.64;101173.71;107751;1264;61631;-75
2022/12/22 08:27:13;;;;;;;59.10;24.40;;;;;;;-0.56;91.73;101167.48;107714;1267;72918;-78
2022/12/22 08:29:47;;;;;;;64.10;25.70;;;;;;;-0.50;90.62;101161.20;107750;1258;72078;-76
2022/12/22 08:32:16;;;;;;;54.80;24.50;;;;;;;-0.62;89.87;101163.31;107625;1266;68886;-75
2022/12/22 08:34:49;;;;;;;59.80;25.00;;;;;;;-0.54;89.61;101160.41;107494;1270;71529;-77
2022/12/22 08:37:21;;;;;;;53.40;25.10;;;;;;;-0.42;91.59;101143.08;107473;1267;59530;-75
2022/12/22 08:40:01;;;;;;;62.00;26.10;;;;;;;-0.33;91.40;101145.27;107496;1270;61107;-75
2022/12/22 08:42:30;;;;;;;58.30;23.60;;;;;;;-0.15;89.86;101145.79;107680;1270;73528;-77
2022/12/22 08:44:59;;;;;;;56.70;24.40;;;;;;;0.06;88.75;101143.11;107611;1269;71992;-78
2022/12/22 08:47:27;;;;;;;60.30;26.10;;;;;;;0.16;88.56;101147.48;107612;1267;69411;-76
2022/12/22 08:49:56;;;;;;;54.50;23.80;;;;;;;0.15;88.48;101148.39;107632;1264;73582;-78
2022/12/22 08:52:25;;;;;;;65.70;26.90;;;;;;;0.13;87.75;101148.61;107630;1261;59260;-78
2022/12/22 08:54:54;;;;;;;63.10;27.30;;;;;;;0.21;88.78;101143.60;107696;1264;58599;-78
2022/12/22 08:57:23;;;;;;;58.00;24.40;;;;;;;0.36;87.93;101143.11;107655;1270;72641;-76
2022/12/22 08:59:52;;;;;;;59.00;26.10;;;;;;;0.48;86.38;101135.79;107782;1265;71582;-78
2022/12/22 09:02:21;;;;;;;66.20;27.40;;;;;;;0.36;86.49;101131.27;107643;1264;70749;-75
2022/12/22 09:04:50;;;;;;;66.60;27.90;;;;;;;0.27;87.91;101128.58;107660;1260;73442;-76
2022/12/22 09:07:18;;;;;;;62.40;25.70;;;;;;;0.34;86.37;101134.07;107685;1260;60729;-75
2022/12/22 09:09:47;;;;;;;62.80;26.80;;;;;;;0.44;86.22;101131.09;107707;1255;59829;-76
2022/12/22 09:12:16;;;;;;;62.80;26.60;;;;;;;0.51;86.27;101122.51;107638;1259;71623;-76
2022/12/22 09:14:45;;;;;;;66.60;28.50;;;;;;;0.42;85.26;101121.18;107804;1258;70031;-75
2022/12/22 09:17:15;;;;;;;66.70;27.80;;;;;;;0.36;86.16;101123.58;107535;1262;70549;-76
2022/12/22 09:19:44;;;;;;;64.00;26.80;;;;;;;0.46;86.13;101115.10;107653;1264;74657;-76
2022/12/22 09:22:12;;;;;;;59.60;27.10;;;;;;;0.51;85.86;101117.73;107737;1269;60967;-76
2022/12/22 09:24:41;;;;;;;64.60;29.50;;;;;;;0.50;85.73;101118.95;107517;1265;59516;-77
2022/12/22 09:27:10;;;;;;;67.90;28.00;;;;;;;0.55;85.75;101117.45;107683;1267;71553;-78
2022/12/22 09:29:40;;;;;;;68.20;29.30;;;;;;;0.59;85.34;101113.77;107688;1261;70289;-75
2022/12/22 09:32:08;;;;;;;66.50;29.60;;;;;;;0.59;85.92;101116.51;107459;1264;70862;-77
2022/12/22 09:34:37;;;;;;;68.40;27.90;;;;;;;0.72;85.20;101112.07;107651;1255;74308;-78
2022/12/22 09:37:06;;;;;;;66.40;27.50;;;;;;;0.66;84.76;101107.92;107663;1261;60798;-76
2022/12/22 09:39:35;;;;;;;66.50;27.90;;;;;;;0.78;84.56;101102.81;107766;1264;58823;-80
2022/12/22 09:42:04;;;;;;;65.10;27.80;;;;;;;0.88;84.35;101099.98;107802;1264;73376;-74
2022/12/22 09:44:38;;;;;;;64.40;26.90;;;;;;;0.71;83.96;101102.30;107861;1259;72306;-74
2022/12/22 09:47:36;;;;;;;64.10;27.70;;;;;;;0.80;84.40;101096.41;107552;1264;70279;-78
2022/12/22 09:50:11;;;;;;;69.70;27.30;;;;;;;0.88;83.28;101095.88;107532;1266;72206;-75
2022/12/22 09:53:04;;;;;;;66.90;29.00;;;;;;;1.01;83.65;101089.20;107691;1267;61987;-73
2022/12/22 09:55:40;;;;;;;68.20;29.00;;;;;;;1.14;82.79;101088.83;107645;1261;60370;-75
2022/12/22 09:58:34;;;;;;;79.20;33.60;;;;;;;1.29;82.81;101084.98;107812;1263;72526;-75
2022/12/22 10:01:59;;;;;;;72.40;31.60;;;;;;;1.40;82.04;101081.58;107924;1256;70559;-75
2022/12/22 10:04:59;;;;;;;64.00;28.60;;;;;;;1.56;81.76;101072.02;107447;1265;69359;-76
2022/12/22 10:07:41;;;;;;;69.80;29.60;;;;;;;1.60;80.93;101068.30;107791;1261;71885;-76
2022/12/22 10:10:26;;;;;;;68.60;30.20;;;;;;;1.59;81.50;101065.42;107802;1258;58548;-75
2022/12/22 10:13:06;;;;;;;65.20;27.80;;;;;;;1.67;81.25;101060.36;107798;1260;61572;-74
2022/12/22 10:15:38;;;;;;;69.30;29.60;;;;;;;1.67;80.53;101050.92;107705;1273;73189;-74
2022/12/22 10:18:23;;;;;;;72.40;30.80;;;;;;;1.62;80.64;101046.10;107831;1261;71158;-76
2022/12/22 10:21:13;;;;;;;66.00;29.30;;;;;;;1.68;80.37;101042.65;107741;1266;67816;-75
2022/12/22 10:23:47;;;;;;;64.20;28.50;;;;;;;1.76;80.41;101042.93;107680;1270;71073;-77
2022/12/22 10:26:27;;;;;;;66.00;28.40;;;;;;;1.80;81.43;101043.30;107663;1267;58004;-74
2022/12/22 10:29:12;;;;;;;67.60;29.20;;;;;;;1.97;80.42;101038.33;107791;1271;61331;-75
2022/12/22 10:32:01;;;;;;;69.40;28.40;;;;;;;1.93;80.38;101031.42;107724;1270;71126;-73
2022/12/22 10:34:30;;;;;;;64.20;29.70;;;;;;;1.85;80.49;101027.54;107907;1267;70229;-77
2022/12/22 10:37:04;;;;;;;68.00;29.60;;;;;;;2.07;80.00;101023.05;107661;1261;69634;-76
2022/12/22 10:39:34;;;;;;;;;;;;;;;2.09;80.01;101015.94;107724;1263;74232;-78
2022/12/22 10:42:12;;;;;;;66.70;29.70;;;;;;;2.27;78.87;101013.13;107616;1267;60157;-76
2022/12/22 10:44:47;;;;;;;70.00;29.60;;;;;;;2.06;79.13;101010.23;107801;1263;58650;-76
2022/12/22 10:47:20;;;;;;;69.50;29.70;;;;;;;2.05;78.94;101015.05;107814;1260;72673;-74
2022/12/22 10:49:55;;;;;;;61.10;28.40;;;;;;;1.99;79.24;101011.48;107967;1258;70875;-77
2022/12/22 10:52:27;;;;;;;66.90;30.80;;;;;;;1.97;79.47;101005.68;107771;1265;68712;-73
2022/12/22 10:55:28;;;;;;;71.30;30.40;;;;;;;1.98;79.89;101002.02;107653;1262;73711;-76
2022/12/22 10:58:27;;;;;;;66.20;30.60;;;;;;;2.12;79.35;101001.41;107847;1263;61233;-76
2022/12/22 11:01:02;;;;;;;61.90;28.50;;;;;;;2.21;79.50;100997.86;107779;1263;60924;-76
2022/12/22 11:03:31;;;;;;;64.80;30.60;;;;;;;2.34;78.77;100991.23;107831;1260;72186;-76
2022/12/22 11:06:00;;;;;;;71.80;30.80;;;;;;;2.24;79.25;100997.06;107753;1255;72127;-76
2022/12/22 11:08:31;;;;;;;64.50;29.50;;;;;;;2.39;79.24;101000.02;107862;1258;69777;-78
2022/12/22 11:11:11;;;;;;;67.60;30.50;;;;;;;2.48;78.49;100997.98;107767;1260;73857;-75
2022/12/22 11:13:56;;;;;;;67.50;29.20;;;;;;;2.45;78.83;101000.67;107635;1263;60241;-76
2022/12/22 11:16:52;;;;;;;68.60;29.60;;;;;;;2.28;79.13;101003.29;107789;1260;61192;-73
2022/12/22 11:19:39;;;;;;;68.90;30.80;;;;;;;2.38;79.91;100999.85;107807;1259;73972;-77
2022/12/22 11:22:36;;;;;;;67.70;31.10;;;;;;;2.40;79.60;100999.64;107902;1260;61292;-76
2022/12/22 11:25:50;;;;;;;63.40;29.80;;;;;;;2.26;79.31;101000.09;107808;1264;71110;-76
2022/12/22 11:28:52;;;;;;;;;;;;;;;2.20;79.60;100996.50;107724;1269;70967;-75
2022/12/22 11:31:44;;;;;;;62.30;27.70;;;;;;;2.10;80.02;100992.89;107759;1263;58044;-75
2022/12/22 11:34:38;;;;;;;59.10;25.20;;;;;;;2.21;80.25;100984.12;107694;1256;59527;-74
2022/12/22 11:37:55;;;;;;;63.30;27.00;;;;;;;1.90;80.30;100983.06;107749;1255;73573;-75
2022/12/22 11:40:41;;;;;;;65.60;28.70;;;;;;;1.88;81.11;100983.63;107463;1261;72400;-75
2022/12/22 11:43:22;;;;;;;60.60;27.10;;;;;;;1.80;81.73;100986.13;107715;1267;68251;-74
2022/12/22 11:46:25;;;;;;;67.50;27.70;;;;;;;1.89;80.99;100980.67;107783;1260;71855;-76
2022/12/22 11:49:19;;;;;;;61.70;27.30;;;;;;;1.87;81.25;100975.61;107557;1260;58639;-75
2022/12/22 11:52:06;;;;;;;;;;;;;;;1.78;81.46;100971.23;107612;1270;59485;-76
2022/12/22 11:55:10;;;;;;;65.00;27.50;;;;;;;1.90;81.20;100969.15;107856;1255;72228;-79
2022/12/22 11:57:50;;;;;;;66.70;28.80;;;;;;;2.04;80.58;100959.77;107928;1255;71845;-77
2022/12/22 12:00:20;;;;;;;65.00;29.00;;;;;;;2.00;81.21;100962.31;107708;1265;68294;-77
2022/12/22 12:03:37;;;;;;;58.90;25.40;;;;;;;1.84;80.57;100959.23;107742;1260;72554;-77
2022/12/22 12:06:22;;;;;;;64.10;26.40;;;;;;;1.76;81.33;100952.23;107790;1264;60571;-77
2022/12/22 12:09:11;;;;;;;64.40;26.40;;;;;;;1.72;83.12;100948.27;107704;1270;59410;-74
2022/12/22 12:12:03;;;;;;;64.80;27.20;;;;;;;1.77;82.06;100945.88;107713;1259;71417;-75
2022/12/22 12:15:23;;;;;;;66.50;27.70;;;;;;;1.76;82.08;100947.78;107753;1261;61544;-74
2022/12/22 12:18:10;;;;;;;63.00;27.30;;;;;;;1.73;81.52;100942.92;107604;1260;69636;-75
2022/12/22 12:21:11;;;;;;;63.10;29.50;;;;;;;1.67;82.15;100941.23;107780;1268;62865;-78
2022/12/22 12:24:01;;;;;;;60.30;27.60;;;;;;;1.58;82.08;100934.46;107756;1259;58183;-76
2022/12/22 12:26:43;;;;;;;63.20;27.80;;;;;;;1.50;82.27;100936.59;107771;1263;58585;-74
2022/12/22 12:29:23;;;;;;;65.80;29.20;;;;;;;1.54;82.67;100938.52;107599;1261;72800;-76
2022/12/22 12:32:39;;;;;;;58.30;25.60;;;;;;;1.53;82.43;100945.77;107905;1262;71723;-76
2022/12/22 12:35:45;;;;;;;67.30;28.10;;;;;;;1.54;82.52;100951.92;107687;1264;68299;-74
2022/12/22 12:38:35;;;;;;;65.40;26.60;;;;;;;1.62;82.31;100950.12;107649;1262;71847;-77
2022/12/22 12:41:50;;;;;;;66.60;27.00;;;;;;;1.45;82.83;100950.84;107637;1255;59546;-77
2022/12/22 12:44:27;;;;;;;59.90;25.90;;;;;;;1.48;82.84;100952.96;107633;1260;61016;-75
2022/12/22 12:47:23;;;;;;;62.20;26.80;;;;;;;1.44;83.80;100949.31;107493;1263;72124;-79
2022/12/22 12:50:05;;;;;;;60.40;26.70;;;;;;;1.32;83.30;100950.55;107716;1257;70211;-78
2022/12/22 12:52:54;;;;;;;64.30;27.70;;;;;;;1.46;82.87;100953.90;107778;1263;68517;-76
2022/12/22 12:55:29;;;;;;;63.20;27.10;;;;;;;1.31;83.94;100952.81;107692;1263;71876;-78
2022/12/22 12:58:03;;;;;;;59.80;26.60;;;;;;;1.42;83.35;100950.75;107658;1267;60045;-74
2022/12/22 13:00:32;;;;;;;59.20;26.30;;;;;;;1.46;84.26;100952.16;107583;1270;60222;-75
2022/12/22 13:03:07;;;;;;;58.70;26.20;;;;;;;1.30;84.28;100950.60;107773;1264;71912;-78
2022/12/22 13:06:00;;;;;;;64.20;25.50;;;;;;;1.19;84.44;100951.95;107939;1259;69191;-74
2022/12/22 13:09:01;;;;;;;57.60;26.50;;;;;;;1.17;84.39;100943.95;107630;1259;69613;-75
2022/12/22 13:11:50;;;;;;;57.10;25.70;;;;;;;1.15;84.69;100938.86;107794;1259;71917;-75
2022/12/22 13:15:00;;;;;;;62.00;25.70;;;;;;;1.02;85.00;100933.09;107804;1261;58924;-73
2022/12/22 13:17:47;;;;;;;59.00;25.80;;;;;;;1.04;85.58;100926.49;107690;1260;59572;-74
2022/12/22 13:20:36;;;;;;;62.70;26.90;;;;;;;1.07;85.84;100924.67;107703;1260;72462;-74
2022/12/22 13:23:14;;;;;;;59.10;25.10;;;;;;;0.96;84.86;100913.17;107693;1260;73391;-72
2022/12/22 13:25:58;;;;;;;57.40;26.80;;;;;;;0.90;85.18;100909.95;107685;1260;68281;-73
2022/12/22 13:28:28;;;;;;;57.60;25.10;;;;;;;0.80;86.59;100911.24;107819;1264;73188;-74
2022/12/22 13:31:03;;;;;;;62.00;29.10;;;;;;;0.76;85.31;100910.88;107689;1261;60766;-74
2022/12/22 13:33:40;;;;;;;55.90;25.40;;;;;;;0.63;86.32;100914.66;107713;1263;61398;-77
2022/12/22 13:36:19;;;;;;;66.60;27.90;;;;;;;0.74;86.72;100921.87;107535;1270;73162;-78
2022/12/22 13:39:04;;;;;;;64.80;27.20;;;;;;;0.73;86.79;100922.08;107656;1266;72393;-83
2022/12/22 13:41:33;;;;;;;70.70;28.10;;;;;;;0.68;86.59;100916.57;107667;1256;59982;-81
2022/12/22 13:44:12;;;;;;;64.00;29.90;;;;;;;0.66;86.85;100918.34;107773;1261;72307;-75
2022/12/22 13:46:41;;;;;;;63.00;29.00;;;;;;;0.76;85.97;100922.32;107744;1260;61211;-77
2022/12/22 13:49:18;;;;;;;69.80;28.10;;;;;;;0.68;86.52;100921.02;107505;1260;61154;-74
2022/12/22 13:52:16;;;;;;;56.50;27.30;;;;;;;0.66;87.36;100917.12;107669;1260;71423;-76
2022/12/22 13:54:45;;;;;;;72.50;28.60;;;;;;;0.65;87.61;100917.70;107653;1265;72194;-74
2022/12/22 13:57:20;;;;;;;60.80;27.50;;;;;;;0.58;88.07;100915.64;107553;1266;68771;-74
2022/12/22 13:59:50;;;;;;;65.70;28.90;;;;;;;0.48;87.04;100917.48;107396;1263;73847;-74
2022/12/22 14:02:21;;;;;;;68.20;28.30;;;;;;;0.40;87.81;100916.51;107337;1263;61103;-71
2022/12/22 14:05:10;;;;;;;72.30;28.60;;;;;;;0.42;87.77;100921.41;107550;1256;58773;-72
2022/12/22 14:07:39;;;;;;;63.70;26.40;;;;;;;0.42;88.94;100929.95;107616;1257;71893;-72
2022/12/22 14:10:09;;;;;;;69.20;28.70;;;;;;;0.47;88.59;100921.93;107774;1262;69538;-72
2022/12/22 14:12:45;;;;;;;63.20;27.80;;;;;;;0.42;88.41;100922.23;107641;1260;68693;-78
2022/12/22 14:15:21;;;;;;;68.60;29.10;;;;;;;0.37;88.06;100927.34;107420;1267;73914;-74
2022/12/22 14:17:53;;;;;;;65.20;27.00;;;;;;;0.27;88.76;100924.71;107585;1260;59112;-77
2022/12/22 14:20:35;;;;;;;68.60;28.00;;;;;;;0.27;89.57;100926.44;107664;1260;59477;-73
2022/12/22 14:23:31;;;;;;;66.30;28.60;;;;;;;0.15;89.36;100928.96;107579;1263;72392;-77
2022/12/22 14:26:04;;;;;;;60.10;29.40;;;;;;;0.12;90.12;100923.73;107670;1259;72128;-75
2022/12/22 14:28:51;;;;;;;69.10;27.60;;;;;;;0.13;89.41;100923.86;107552;1264;69131;-79
2022/12/22 14:31:20;;;;;;;62.40;27.10;;;;;;;-0.05;90.31;100924.85;107600;1264;63279;-78
2022/12/22 14:33:53;;;;;;;62.30;27.30;;;;;;;-0.09;90.57;100926.31;107615;1259;60794;-79
2022/12/22 14:36:26;;;;;;;62.20;27.20;;;;;;;-0.20;91.00;100928.63;107575;1259;58713;-82
2022/12/22 14:38:57;;;;;;;63.90;26.30;;;;;;;-0.20;91.25;100933.61;107577;1263;72121;-79
2022/12/22 14:41:50;;;;;;;59.70;25.10;;;;;;;-0.23;91.52;100933.86;107836;1255;70313;-75
2022/12/22 14:44:19;;;;;;;57.30;25.80;;;;;;;-0.27;91.75;100927.98;107843;1260;68548;-73
2022/12/22 14:47:18;;;;;;;62.40;26.80;;;;;;;-0.34;91.79;100929.48;107821;1263;73825;-77
2022/12/22 14:50:13;;;;;;;59.40;26.20;;;;;;;-0.35;93.84;100925.23;107765;1268;60964;-76
2022/12/22 14:52:53;;;;;;;58.40;26.50;;;;;;;-0.36;93.77;100928.52;107690;1264;60918;-73
2022/12/22 14:55:36;;;;;;;65.90;27.60;;;;;;;-0.39;92.86;100927.20;107735;1260;71211;-77
2022/12/22 14:58:24;;;;;;;65.10;28.40;;;;;;;-0.46;94.36;100930.48;107809;1257;70191;-78
2022/12/22 15:01:29;;;;;;;61.70;27.30;;;;;;;-0.50;94.22;100927.65;107820;1264;69237;-78
2022/12/22 15:04:06;;;;;;;61.10;26.70;;;;;;;-0.59;93.96;100932.65;107602;1266;72486;-78
2022/12/22 15:06:47;;;;;;;60.90;24.30;;;;;;;-0.64;94.48;100928.82;107841;1258;62148;-78
2022/12/22 15:09:17;;;;;;;60.70;25.20;;;;;;;-0.70;93.92;100926.23;107634;1268;60196;-78
2022/12/22 15:12:16;;;;;;;61.10;25.50;;;;;;;-0.80;94.56;100932.44;107876;1251;72052;-77
2022/12/22 15:14:47;;;;;;;60.60;25.30;;;;;;;-0.85;95.00;100926.54;107676;1263;70400;-79
2022/12/22 15:17:24;;;;;;;68.40;27.70;;;;;;;-0.83;97.19;100918.30;107872;1261;70425;-78
2022/12/22 15:19:58;;;;;;;58.80;26.20;;;;;;;-0.88;95.80;100915.49;107697;1259;73494;-76
2022/12/22 15:22:27;;;;;;;61.60;26.00;;;;;;;-0.89;96.45;100917.24;107791;1263;62509;-78
2022/12/22 15:24:55;;;;;;;57.70;24.10;;;;;;;-0.96;96.26;100920.80;107801;1260;59338;-77
2022/12/22 15:27:24;;;;;;;62.60;25.10;;;;;;;-1.00;95.52;100917.64;107782;1259;72132;-77
2022/12/22 15:29:53;;;;;;;59.30;25.00;;;;;;;-1.05;96.78;100913.13;107925;1269;70237;-76